createdAt,value
2023-01-19T00:01:42.182Z,99148.28
2023-01-19T00:04:10.243Z,99150.31
2023-01-19T00:06:38.106Z,99152.31
2023-01-19T00:09:06.023Z,99145.53
2023-01-19T00:11:33.982Z,99141.56
2023-01-19T00:14:02.142Z,99136.06
2023-01-19T00:16:30.120Z,99143.09
2023-01-19T00:18:58.089Z,99142.75
2023-01-19T00:21:26.075Z,99144.69
2023-01-19T00:23:54.036Z,99149.94
2023-01-19T00:26:22.526Z,99144.19
2023-01-19T00:28:50.922Z,99146.03
2023-01-19T00:31:20.985Z,99141.00
2023-01-19T00:33:50.445Z,99136.06
2023-01-19T00:36:19.359Z,99129.34
2023-01-19T00:38:47.447Z,99130.31
2023-01-19T00:41:15.491Z,99121.25
2023-01-19T00:43:43.408Z,99131.53
2023-01-19T00:46:11.268Z,99125.53
2023-01-19T00:48:39.221Z,99126.25
2023-01-19T00:51:07.141Z,99119.81
2023-01-19T00:53:35.103Z,99113.69
2023-01-19T00:56:02.966Z,99119.09
2023-01-19T00:58:30.822Z,99117.78
2023-01-19T01:01:03.912Z,99119.09
2023-01-19T01:03:32.404Z,99125.91
2023-01-19T01:06:00.272Z,99127.03
2023-01-19T01:08:28.088Z,99129.16
2023-01-19T01:10:56.772Z,99134.06
2023-01-19T01:13:27.252Z,99138.97
2023-01-19T01:15:57.089Z,99136.09
2023-01-19T01:18:26.463Z,99135.03
2023-01-19T01:21:05.032Z,99133.72
2023-01-19T01:23:33.658Z,99137.53
2023-01-19T01:26:01.875Z,99136.47
2023-01-19T01:28:29.810Z,99135.38
2023-01-19T01:30:57.615Z,99137.56
2023-01-19T01:33:40.670Z,99135.47
2023-01-19T01:36:10.770Z,99130.97
2023-01-19T01:38:40.631Z,99134.16
2023-01-19T01:41:09.344Z,99136.06
2023-01-19T01:43:50.655Z,99126.97
2023-01-19T01:46:20.149Z,99129.50
2023-01-19T01:49:16.554Z,99112.03
2023-01-19T01:51:48.372Z,99120.06
2023-01-19T01:54:31.055Z,99126.50
2023-01-19T01:57:05.176Z,99127.69
2023-01-19T01:59:39.442Z,99127.91
2023-01-19T02:02:30.589Z,99129.91
2023-01-19T02:05:04.575Z,99139.00
2023-01-19T02:08:14.107Z,99129.19
2023-01-19T02:11:01.936Z,99120.09
2023-01-19T02:13:31.465Z,99120.56
2023-01-19T02:16:03.503Z,99112.44
2023-01-19T02:18:32.520Z,99121.88
2023-01-19T02:21:04.895Z,99118.50
2023-01-19T02:23:48.686Z,99122.97
2023-01-19T02:26:39.236Z,99133.25
2023-01-19T02:29:16.729Z,99121.88
2023-01-19T02:31:45.560Z,99120.81
2023-01-19T02:34:17.246Z,99115.81
2023-01-19T02:36:56.521Z,99121.28
2023-01-19T02:39:33.794Z,99109.09
2023-01-19T02:42:06.436Z,99114.13
2023-01-19T02:44:36.788Z,99097.84
2023-01-19T02:47:05.961Z,99110.06
2023-01-19T02:49:33.908Z,99114.38
2023-01-19T02:52:01.978Z,99122.84
2023-01-19T02:55:04.045Z,99128.22
2023-01-19T02:57:39.728Z,99122.00
2023-01-19T03:00:13.294Z,99131.09
2023-01-19T03:03:09.362Z,99144.22
2023-01-19T03:05:50.127Z,99145.69
2023-01-19T03:08:34.454Z,99150.47
2023-01-19T03:11:09.166Z,99153.81
2023-01-19T03:13:52.732Z,99153.09
2023-01-19T03:16:22.570Z,99150.69
2023-01-19T03:19:09.105Z,99140.66
2023-01-19T03:21:40.063Z,99143.75
2023-01-19T03:24:11.869Z,99141.13
2023-01-19T03:26:45.164Z,99146.63
2023-01-19T03:29:14.284Z,99165.06
2023-01-19T03:31:45.665Z,99168.41
2023-01-19T03:34:16.521Z,99161.44
2023-01-19T03:36:49.616Z,99164.19
2023-01-19T03:39:25.120Z,99170.41
2023-01-19T03:41:59.645Z,99167.66
2023-01-19T03:44:29.815Z,99167.19
2023-01-19T03:46:59.609Z,99177.25
2023-01-19T03:49:30.901Z,99171.00
2023-01-19T03:51:59.507Z,99162.88
2023-01-19T03:54:28.502Z,99155.59
2023-01-19T03:56:56.445Z,99153.91
2023-01-19T03:59:24.306Z,99147.31
2023-01-19T04:01:52.649Z,99157.94
2023-01-19T04:04:20.497Z,99151.38
2023-01-19T04:06:48.398Z,99162.06
2023-01-19T04:09:17.544Z,99160.59
2023-01-19T04:11:47.340Z,99160.38
2023-01-19T04:14:15.175Z,99164.44
2023-01-19T04:16:43.056Z,99147.00
2023-01-19T04:19:11.437Z,99157.28
2023-01-19T04:21:39.654Z,99146.59
2023-01-19T04:24:08.014Z,99146.50
2023-01-19T04:26:35.944Z,99155.84
2023-01-19T04:29:04.614Z,99158.19
2023-01-19T04:31:33.112Z,99151.28
2023-01-19T04:34:01.057Z,99147.84
2023-01-19T04:36:28.875Z,99157.03
2023-01-19T04:38:56.683Z,99162.88
2023-01-19T04:41:24.596Z,99162.66
2023-01-19T04:43:52.484Z,99162.78
2023-01-19T04:46:20.314Z,99167.69
2023-01-19T04:48:48.260Z,99174.25
2023-01-19T04:51:16.123Z,99164.22
2023-01-19T04:53:44.035Z,99161.56
2023-01-19T04:56:12.775Z,99168.16
2023-01-19T04:58:41.033Z,99172.72
2023-01-19T05:01:09.961Z,99168.38
2023-01-19T05:03:37.965Z,99170.41
2023-01-19T05:06:06.715Z,99178.91
2023-01-19T05:08:34.617Z,99185.97
2023-01-19T05:11:02.595Z,99180.13
2023-01-19T05:13:30.716Z,99174.00
2023-01-19T05:15:58.719Z,99185.38
2023-01-19T05:18:26.660Z,99185.00
2023-01-19T05:20:54.534Z,99193.50
2023-01-19T05:23:22.454Z,99189.81
2023-01-19T05:25:50.605Z,99183.22
2023-01-19T05:28:19.334Z,99179.78
2023-01-19T05:30:47.239Z,99197.09
2023-01-19T05:33:15.273Z,99204.53
2023-01-19T05:35:43.148Z,99200.47
2023-01-19T05:38:10.953Z,99206.81
2023-01-19T05:40:38.745Z,99208.81
2023-01-19T05:43:06.713Z,99213.63
2023-01-19T05:45:34.938Z,99217.53
2023-01-19T05:48:02.902Z,99215.97
2023-01-19T05:50:30.994Z,99219.00
2023-01-19T05:53:00.423Z,99218.28
2023-01-19T05:55:29.548Z,99219.13
2023-01-19T05:57:57.516Z,99218.63
2023-01-19T06:00:27.811Z,99216.94
2023-01-19T06:02:55.800Z,99224.13
2023-01-19T06:05:23.778Z,99225.09
2023-01-19T06:07:51.653Z,99226.78
2023-01-19T06:10:19.774Z,99224.63
2023-01-19T06:12:47.654Z,99239.81
2023-01-19T06:15:15.623Z,99247.97
2023-01-19T06:17:43.502Z,99244.22
2023-01-19T06:20:14.128Z,99243.41
2023-01-19T06:22:42.108Z,99243.03
2023-01-19T06:25:10.641Z,99254.66
2023-01-19T06:27:40.063Z,99263.50
2023-01-19T06:30:08.605Z,99267.34
2023-01-19T06:32:36.584Z,99270.78
2023-01-19T06:35:05.693Z,99280.50
2023-01-19T06:37:34.825Z,99274.53
2023-01-19T06:40:03.237Z,99273.41
2023-01-19T06:42:31.295Z,99273.06
2023-01-19T06:44:59.484Z,99283.84
2023-01-19T06:47:27.394Z,99281.09
2023-01-19T06:49:55.365Z,99285.16
2023-01-19T06:52:23.318Z,99289.94
2023-01-19T06:54:51.325Z,99290.56
2023-01-19T06:57:19.239Z,99300.84
2023-01-19T06:59:47.245Z,99299.06
2023-01-19T07:02:26.461Z,99302.28
2023-01-19T07:04:56.990Z,99314.13
2023-01-19T07:07:25.674Z,99308.28
2023-01-19T07:09:54.370Z,99310.75
2023-01-19T07:12:23.168Z,99315.06
2023-01-19T07:14:51.903Z,99323.78
2023-01-19T07:17:20.451Z,99333.94
2023-01-19T07:19:48.467Z,99329.00
2023-01-19T07:22:16.443Z,99334.19
2023-01-19T07:24:44.547Z,99328.69
2023-01-19T07:27:12.879Z,99341.34
2023-01-19T07:29:40.695Z,99349.63
2023-01-19T07:32:08.913Z,99350.81
2023-01-19T07:34:37.223Z,99358.84
2023-01-19T07:37:05.127Z,99361.25
2023-01-19T07:39:33.018Z,99370.47
2023-01-19T07:42:01.385Z,99368.91
2023-01-19T07:44:29.965Z,99378.97
2023-01-19T07:46:57.930Z,99383.03
2023-01-19T07:49:25.876Z,99387.38
2023-01-19T07:51:56.475Z,99390.97
2023-01-19T07:54:24.477Z,99399.59
2023-01-19T07:56:55.524Z,99410.34
2023-01-19T07:59:23.739Z,99416.09
2023-01-19T08:01:53.626Z,99417.91
2023-01-19T08:04:22.059Z,99425.44
2023-01-19T08:06:50.107Z,99426.81
2023-01-19T08:09:18.373Z,99421.44
2023-01-19T08:11:46.673Z,99434.75
2023-01-19T08:14:14.603Z,99450.97
2023-01-19T08:16:42.455Z,99455.50
2023-01-19T08:19:10.414Z,99474.78
2023-01-19T08:21:39.188Z,99479.22
2023-01-19T08:24:07.526Z,99479.66
2023-01-19T08:26:35.986Z,99488.97
2023-01-19T08:29:06.098Z,99501.13
2023-01-19T08:31:34.054Z,99506.09
2023-01-19T08:34:02.540Z,99525.09
2023-01-19T08:36:30.551Z,99514.81
2023-01-19T08:38:58.488Z,99519.66
2023-01-19T08:41:27.077Z,99522.09
2023-01-19T08:43:54.944Z,99538.19
2023-01-19T08:46:22.887Z,99551.84
2023-01-19T08:48:50.884Z,99560.22
2023-01-19T08:51:19.555Z,99556.69
2023-01-19T08:53:47.723Z,99565.38
2023-01-19T08:56:15.731Z,99565.59
2023-01-19T08:58:45.755Z,99570.47
2023-01-19T09:01:17.080Z,99576.69
2023-01-19T09:03:45.081Z,99568.38
2023-01-19T09:06:17.084Z,99572.47
2023-01-19T09:08:45.404Z,99583.50
2023-01-19T09:11:15.566Z,99578.03
2023-01-19T09:13:43.855Z,99570.56
2023-01-19T09:16:13.526Z,99578.25
2023-01-19T09:18:41.773Z,99583.16
2023-01-19T09:21:09.700Z,99587.94
2023-01-19T09:23:38.051Z,99596.66
2023-01-19T09:26:07.126Z,99597.13
2023-01-19T09:28:35.089Z,99610.38
2023-01-19T09:31:07.823Z,99622.56
2023-01-19T09:33:35.986Z,99628.66
2023-01-19T09:36:04.909Z,99621.53
2023-01-19T09:38:33.185Z,99626.78
2023-01-19T09:41:01.826Z,99625.09
2023-01-19T09:43:38.975Z,99625.56
2023-01-19T09:46:41.639Z,99641.22
2023-01-19T09:49:39.514Z,99638.09
2023-01-19T09:52:12.516Z,99645.38
2023-01-19T09:54:57.507Z,99650.31
2023-01-19T09:57:30.504Z,99652.22
2023-01-19T09:59:59.920Z,99652.50
2023-01-19T10:02:40.817Z,99649.97
2023-01-19T10:05:25.601Z,99665.84
2023-01-19T10:07:56.154Z,99652.16
2023-01-19T10:10:27.877Z,99652.44
2023-01-19T10:13:03.522Z,99656.53
2023-01-19T10:16:00.074Z,99657.69
2023-01-19T10:18:35.925Z,99660.72
2023-01-19T10:21:22.164Z,99653.53
2023-01-19T10:24:06.707Z,99654.69
2023-01-19T10:26:39.533Z,99655.22
2023-01-19T10:29:15.017Z,99664.34
2023-01-19T10:31:46.700Z,99663.47
2023-01-19T10:34:21.581Z,99666.66
2023-01-19T10:36:59.398Z,99666.06
2023-01-19T10:39:27.354Z,99657.66
2023-01-19T10:41:55.188Z,99657.25
2023-01-19T10:44:28.969Z,99662.63
2023-01-19T10:46:59.324Z,99659.53
2023-01-19T10:49:30.173Z,99654.13
2023-01-19T10:52:00.784Z,99658.41
2023-01-19T10:54:32.403Z,99651.31
2023-01-19T10:57:07.579Z,99649.16
2023-01-19T10:59:38.971Z,99646.06
2023-01-19T11:02:30.737Z,99639.13
2023-01-19T11:05:21.433Z,99636.00
2023-01-19T11:07:49.278Z,99628.06
2023-01-19T11:10:23.383Z,99633.09
2023-01-19T11:13:12.950Z,99628.31
2023-01-19T11:15:44.887Z,99623.53
2023-01-19T11:18:23.651Z,99619.84
2023-01-19T11:20:55.324Z,99619.94
2023-01-19T11:23:33.820Z,99614.44
2023-01-19T11:26:05.598Z,99613.88
2023-01-19T11:28:37.589Z,99611.53
2023-01-19T11:31:11.400Z,99607.31
2023-01-19T11:33:53.385Z,99613.22
2023-01-19T11:36:28.133Z,99607.78
2023-01-19T11:39:23.974Z,99615.25
2023-01-19T11:41:57.263Z,99605.56
2023-01-19T11:44:33.194Z,99601.41
2023-01-19T11:47:06.100Z,99599.97
2023-01-19T11:49:51.304Z,99588.00
2023-01-19T11:52:35.994Z,99587.84
2023-01-19T11:55:17.419Z,99582.94
2023-01-19T11:57:52.389Z,99583.84
2023-01-19T12:00:35.782Z,99598.66
2023-01-19T12:03:30.774Z,99595.22
2023-01-19T12:06:04.425Z,99584.06
2023-01-19T12:08:40.086Z,99586.81
2023-01-19T12:11:12.705Z,99576.41
2023-01-19T12:13:44.312Z,99587.00
2023-01-19T12:16:21.755Z,99586.38
2023-01-19T12:19:14.915Z,99584.06
2023-01-19T12:21:44.615Z,99565.91
2023-01-19T12:24:18.830Z,99585.69
2023-01-19T12:26:57.348Z,99583.78
2023-01-19T12:29:31.464Z,99572.84
2023-01-19T12:32:14.555Z,99577.47
2023-01-19T12:34:50.093Z,99582.66
2023-01-19T12:37:43.503Z,99582.53
2023-01-19T12:40:26.963Z,99592.63
2023-01-19T12:43:01.867Z,99580.84
2023-01-19T12:45:35.184Z,99578.34
2023-01-19T12:48:05.013Z,99585.06
2023-01-19T12:50:40.404Z,99577.59
2023-01-19T12:53:19.205Z,99570.03
2023-01-19T12:56:00.209Z,99572.88
2023-01-19T12:58:28.241Z,99578.97
2023-01-19T13:01:19.228Z,99578.75
2023-01-19T13:04:01.777Z,99585.03
2023-01-19T13:06:50.011Z,99582.38
2023-01-19T13:09:32.179Z,99585.66
2023-01-19T13:12:15.477Z,99584.88
2023-01-19T13:14:44.115Z,99591.94
2023-01-19T13:17:33.709Z,99592.94
2023-01-19T13:20:23.275Z,99603.28
2023-01-19T13:22:52.212Z,99603.28
2023-01-19T13:25:35.829Z,99595.50
2023-01-19T13:28:10.695Z,99609.31
2023-01-19T13:30:51.697Z,99604.34
2023-01-19T13:33:23.336Z,99612.34
2023-01-19T13:35:58.998Z,99612.13
2023-01-19T13:38:28.262Z,99621.47
2023-01-19T13:40:59.020Z,99616.53
2023-01-19T13:43:34.006Z,99617.75
2023-01-19T13:46:04.315Z,99618.09
2023-01-19T13:48:33.019Z,99623.19
2023-01-19T13:51:07.281Z,99614.72
2023-01-19T13:53:35.645Z,99624.44
2023-01-19T13:56:17.474Z,99624.97
2023-01-19T13:58:58.764Z,99628.91
2023-01-19T14:01:29.499Z,99634.44
2023-01-19T14:03:58.956Z,99633.56
2023-01-19T14:06:34.974Z,99632.50
2023-01-19T14:09:07.749Z,99639.09
2023-01-19T14:11:35.943Z,99634.97
2023-01-19T14:14:03.940Z,99646.16
2023-01-19T14:16:31.968Z,99645.09
2023-01-19T14:19:02.518Z,99647.34
2023-01-19T14:21:41.191Z,99656.91
2023-01-19T14:24:17.215Z,99659.19
2023-01-19T14:26:48.545Z,99652.16
2023-01-19T14:29:16.525Z,99657.22
2023-01-19T14:31:53.864Z,99656.72
2023-01-19T14:35:14.021Z,99662.38
2023-01-19T14:37:50.624Z,99666.91
2023-01-19T14:40:21.603Z,99664.25
2023-01-19T14:42:52.659Z,99661.22
2023-01-19T14:45:34.179Z,99663.91
2023-01-19T14:48:21.253Z,99663.72
2023-01-19T14:51:02.924Z,99667.88
2023-01-19T14:53:51.972Z,99669.13
2023-01-19T14:56:31.707Z,99671.88
2023-01-19T14:59:01.838Z,99675.88
2023-01-19T15:01:31.296Z,99676.09
2023-01-19T15:03:59.762Z,99677.03
2023-01-19T15:06:28.210Z,99682.28
2023-01-19T15:08:56.274Z,99679.88
2023-01-19T15:11:31.514Z,99677.69
2023-01-19T15:14:00.081Z,99681.91
2023-01-19T15:16:30.466Z,99690.53
2023-01-19T15:18:58.413Z,99685.38
2023-01-19T15:21:26.996Z,99690.41
2023-01-19T15:23:55.493Z,99694.56
2023-01-19T15:26:26.482Z,99695.69
2023-01-19T15:28:56.337Z,99693.81
2023-01-19T15:31:26.444Z,99701.06
2023-01-19T15:33:54.596Z,99690.19
2023-01-19T15:36:24.522Z,99697.09
2023-01-19T15:38:52.408Z,99701.72
2023-01-19T15:41:28.032Z,99706.06
2023-01-19T15:43:56.703Z,99703.44
2023-01-19T15:46:26.033Z,99709.34
2023-01-19T15:48:54.597Z,99702.53
2023-01-19T15:51:27.948Z,99701.88
2023-01-19T15:53:56.182Z,99702.75
2023-01-19T15:56:28.994Z,99706.84
2023-01-19T15:58:58.431Z,99709.16
2023-01-19T16:01:32.476Z,99718.22
2023-01-19T16:04:02.775Z,99719.03
2023-01-19T16:06:31.801Z,99715.16
2023-01-19T16:09:01.766Z,99715.38
2023-01-19T16:11:35.293Z,99707.69
2023-01-19T16:14:03.310Z,99720.94
2023-01-19T16:16:31.359Z,99720.53
2023-01-19T16:18:59.327Z,99716.09
2023-01-19T16:21:27.384Z,99726.81
2023-01-19T16:23:55.557Z,99721.97
2023-01-19T16:26:25.352Z,99731.25
2023-01-19T16:28:56.638Z,99738.53
2023-01-19T16:31:24.766Z,99735.03
2023-01-19T16:33:52.724Z,99733.47
2023-01-19T16:36:28.144Z,99735.47
2023-01-19T16:39:19.850Z,99735.94
2023-01-19T16:41:47.794Z,99738.38
2023-01-19T16:44:17.154Z,99752.69
2023-01-19T16:46:46.591Z,99757.94
2023-01-19T16:49:23.508Z,99752.66
2023-01-19T16:51:53.714Z,99768.88
2023-01-19T16:54:23.794Z,99781.47
2023-01-19T16:56:52.416Z,99783.19
2023-01-19T16:59:22.360Z,99793.31
2023-01-19T17:01:52.272Z,99801.91
2023-01-19T17:04:21.824Z,99794.81
2023-01-19T17:06:52.813Z,99802.47
2023-01-19T17:09:20.865Z,99808.53
2023-01-19T17:11:49.001Z,99805.91
2023-01-19T17:14:20.701Z,99807.13
2023-01-19T17:16:49.492Z,99816.72
2023-01-19T17:19:19.479Z,99826.16
2023-01-19T17:21:49.338Z,99815.44
2023-01-19T17:24:18.131Z,99821.25
2023-01-19T17:26:48.791Z,99816.19
2023-01-19T17:29:17.167Z,99816.59
2023-01-19T17:31:46.054Z,99819.94
2023-01-19T17:34:14.043Z,99821.25
2023-01-19T17:36:41.998Z,99821.66
2023-01-19T17:39:15.146Z,99815.03
2023-01-19T17:41:42.914Z,99820.50
2023-01-19T17:44:10.934Z,99826.66
2023-01-19T17:46:39.212Z,99819.22
2023-01-19T17:49:08.355Z,99828.88
2023-01-19T17:51:36.704Z,99822.47
2023-01-19T17:54:05.031Z,99826.94
2023-01-19T17:56:36.975Z,99827.09
2023-01-19T17:59:07.962Z,99823.13
2023-01-19T18:01:40.126Z,99817.84
2023-01-19T18:04:09.273Z,99827.00
2023-01-19T18:06:39.061Z,99830.31
2023-01-19T18:09:07.635Z,99837.88
2023-01-19T18:11:36.193Z,99829.47
2023-01-19T18:14:05.701Z,99836.97
2023-01-19T18:16:33.774Z,99834.44
2023-01-19T18:19:01.924Z,99834.59
2023-01-19T18:21:30.672Z,99831.22
2023-01-19T18:24:05.029Z,99827.44
2023-01-19T18:26:34.864Z,99837.03
2023-01-19T18:29:02.798Z,99835.22
2023-01-19T18:31:31.018Z,99827.03
2023-01-19T18:33:59.712Z,99829.78
2023-01-19T18:36:27.767Z,99827.06
2023-01-19T18:38:55.913Z,99831.47
2023-01-19T18:41:23.893Z,99820.41
2023-01-19T18:43:53.734Z,99815.06
2023-01-19T18:46:21.802Z,99817.78
2023-01-19T18:48:50.103Z,99812.63
2023-01-19T18:51:18.505Z,99820.75
2023-01-19T18:53:46.427Z,99808.09
2023-01-19T18:56:15.952Z,99813.97
2023-01-19T18:58:45.043Z,99815.66
2023-01-19T19:01:21.245Z,99823.66
2023-01-19T19:03:50.094Z,99816.47
2023-01-19T19:06:21.140Z,99821.50
2023-01-19T19:08:54.376Z,99818.34
2023-01-19T19:11:24.680Z,99816.56
2023-01-19T19:14:01.395Z,99824.00
2023-01-19T19:16:32.197Z,99820.84
2023-01-19T19:19:02.121Z,99812.41
2023-01-19T19:21:30.072Z,99820.44
2023-01-19T19:23:58.846Z,99820.41
2023-01-19T19:26:28.571Z,99823.03
2023-01-19T19:29:12.355Z,99820.28
2023-01-19T19:31:40.954Z,99821.66
2023-01-19T19:34:12.571Z,99818.91
2023-01-19T19:36:40.856Z,99816.00
2023-01-19T19:39:08.881Z,99807.53
2023-01-19T19:41:39.191Z,99812.28
2023-01-19T19:44:07.153Z,99811.75
2023-01-19T19:46:35.247Z,99815.44
2023-01-19T19:49:05.303Z,99810.31
2023-01-19T19:51:34.292Z,99820.41
2023-01-19T19:54:02.525Z,99826.88
2023-01-19T19:56:34.236Z,99821.72
2023-01-19T19:59:02.218Z,99818.56
2023-01-19T20:01:33.483Z,99818.13
2023-01-19T20:04:09.977Z,99823.16
2023-01-19T20:06:44.946Z,99818.03
2023-01-19T20:09:14.379Z,99823.69
2023-01-19T20:11:44.480Z,99816.00
2023-01-19T20:14:13.827Z,99823.31
2023-01-19T20:16:42.959Z,99825.19
2023-01-19T20:19:11.255Z,99829.78
2023-01-19T20:21:44.435Z,99836.06
2023-01-19T20:24:16.380Z,99833.06
2023-01-19T20:26:47.206Z,99836.34
2023-01-19T20:29:15.517Z,99831.09
2023-01-19T20:31:48.004Z,99837.38
2023-01-19T20:34:17.985Z,99838.22
2023-01-19T20:36:49.853Z,99841.31
2023-01-19T20:39:19.056Z,99840.75
2023-01-19T20:41:49.509Z,99842.06
2023-01-19T20:44:22.438Z,99842.91
2023-01-19T20:46:51.735Z,99841.53
2023-01-19T20:49:19.806Z,99839.09
2023-01-19T20:51:48.486Z,99837.19
2023-01-19T20:54:18.804Z,99838.31
2023-01-19T20:56:46.696Z,99850.78
2023-01-19T20:59:14.884Z,99852.41
2023-01-19T21:01:43.325Z,99861.22
2023-01-19T21:04:12.096Z,99865.06
2023-01-19T21:06:40.683Z,99871.91
2023-01-19T21:09:10.091Z,99875.63
2023-01-19T21:11:39.660Z,99880.06
2023-01-19T21:14:08.839Z,99879.69
2023-01-19T21:16:37.511Z,99873.75
2023-01-19T21:19:05.703Z,99882.50
2023-01-19T21:21:33.789Z,99882.31
2023-01-19T21:24:03.104Z,99874.69
2023-01-19T21:26:31.542Z,99875.16
2023-01-19T21:29:01.655Z,99865.22
2023-01-19T21:31:30.083Z,99881.19
2023-01-19T21:33:58.462Z,99874.59
2023-01-19T21:36:26.573Z,99876.13
2023-01-19T21:39:00.645Z,99878.47
2023-01-19T21:41:30.595Z,99883.13
2023-01-19T21:44:00.698Z,99880.91
2023-01-19T21:46:29.788Z,99889.97
2023-01-19T21:49:05.756Z,99896.09
2023-01-19T21:51:36.384Z,99903.22
2023-01-19T21:54:06.606Z,99904.59
2023-01-19T21:56:35.973Z,99903.22
2023-01-19T21:59:04.483Z,99907.31
2023-01-19T22:01:34.244Z,99907.44
2023-01-19T22:04:02.353Z,99905.25
2023-01-19T22:06:30.369Z,99907.16
2023-01-19T22:08:58.650Z,99915.97
2023-01-19T22:11:27.990Z,99915.31
2023-01-19T22:13:56.208Z,99914.34
2023-01-19T22:16:25.306Z,99920.66
2023-01-19T22:19:02.251Z,99917.75
2023-01-19T22:21:33.327Z,99922.72
2023-01-19T22:24:02.673Z,99926.09
2023-01-19T22:26:32.481Z,99920.00
2023-01-19T22:29:01.929Z,99927.97
2023-01-19T22:31:30.842Z,99927.97
2023-01-19T22:33:58.961Z,99928.63
2023-01-19T22:36:34.141Z,99931.25
2023-01-19T22:39:05.543Z,99920.19
2023-01-19T22:41:42.860Z,99921.97
2023-01-19T22:44:21.189Z,99923.38
2023-01-19T22:46:50.821Z,99920.38
2023-01-19T22:49:18.837Z,99923.38
2023-01-19T22:51:47.244Z,99920.31
2023-01-19T22:54:15.273Z,99924.59
2023-01-19T22:56:43.366Z,99925.38
2023-01-19T22:59:11.467Z,99931.44
2023-01-19T23:01:42.190Z,99931.06
2023-01-19T23:04:15.856Z,99928.06
2023-01-19T23:06:46.866Z,99928.44
2023-01-19T23:09:15.327Z,99927.59
2023-01-19T23:11:45.448Z,99935.09
2023-01-19T23:14:16.996Z,99937.72
2023-01-19T23:16:47.450Z,99934.44
2023-01-19T23:19:17.521Z,99942.22
2023-01-19T23:21:45.995Z,99939.97
2023-01-19T23:24:13.875Z,99941.94
2023-01-19T23:26:41.862Z,99943.03
2023-01-19T23:29:15.193Z,99948.94
2023-01-19T23:31:46.022Z,99948.47
2023-01-19T23:34:14.898Z,99955.88
2023-01-19T23:36:44.115Z,99947.81
2023-01-19T23:39:18.311Z,99949.22
2023-01-19T23:41:46.712Z,99955.50
2023-01-19T23:44:14.940Z,99946.88
2023-01-19T23:46:44.180Z,99955.28
2023-01-19T23:49:13.132Z,99953.84
2023-01-19T23:51:41.973Z,99956.44
2023-01-19T23:54:10.366Z,99964.75
2023-01-19T23:56:39.206Z,99957.91
2023-01-19T23:59:13.013Z,99956.41
